Latest Weather Observations for Geelong Racecourse

IDV60901

Issued at 3:45 am EST Wednesday 1 October 2014 (issued every 10 minutes, with the page automatically refreshed every 10 minutes)

About weather observations | Map of Melbourne area stations | Latest observations for Melbourne area | Other Formats
Station Details ID: 087184 Name: GEELONG RACECOURSE Lat: -38.17 Lon: 144.38 Height: 12.9 m
Data from the previous 72 hours. | See also: Recent months at Geelong Racecourse
Date/Time
EST
Tmp

°C
App
Tmp
°C
Dew
Point
°C
Rel
Hum
%
Delta-T

°C
Wind Press
QNH
hPa
Press
MSL
hPa
Rain
since
9 am
mm
Dir
 
Spd
km/h
Gust
km/h
Spd
kts
Gust
kts
01/03:30am 5.8 2.4 4.1 89 0.7 WNW 11 19 6 10 1018.0 1018.0 5.0
01/03:00am 6.4 2.6 3.9 84 1.1 W 13 20 7 11 1017.6 1017.6 5.0
01/02:30am 6.6 2.2 4.6 87 0.9 W 17 22 9 12 1017.3 1017.3 5.0
01/02:00am 6.8 2.4 5.0 88 0.8 W 17 26 9 14 1016.9 1016.9 5.0
01/01:30am 6.4 2.4 4.9 90 0.7 WNW 15 24 8 13 1016.8 1016.8 5.0
01/01:00am 6.5 2.1 5.0 90 0.7 W 17 26 9 14 1016.5 1016.5 5.0
01/12:30am 6.8 2.1 5.0 88 0.8 W 19 28 10 15 1016.0 1016.0 5.0
01/12:00am 7.2 1.2 5.2 87 0.9 W 26 41 14 22 1015.4 1015.4 5.0
 
Date/Time
EST
Tmp

°C
App
Tmp
°C
Dew
Point
°C
Rel
Hum
%
Delta-T

°C
Wind Press
QNH
hPa
Press
MSL
hPa
Rain
since
9 am
mm
Dir
 
Spd
km/h
Gust
km/h
Spd
kts
Gust
kts
30/11:30pm 7.0 1.7 5.0 87 0.9 WNW 22 32 12 17 1014.8 1014.8 5.0
30/11:00pm 6.9 2.0 4.9 87 0.9 WNW 20 30 11 16 1014.6 1014.6 4.8
30/10:30pm 7.3 1.9 4.6 83 1.2 WNW 22 35 12 19 1014.5 1014.5 4.6
30/10:00pm 7.3 0.9 5.0 85 1.0 W 28 41 15 22 1014.2 1014.2 4.6
30/09:49pm 8.1 0.3 4.7 79 1.5 W 35 56 19 30 1014.4 1014.4 4.4
30/09:47pm 8.3 -0.4 4.3 76 1.7 W 39 56 21 30 1014.2 1014.2 4.2
30/09:30pm 8.2 3.4 4.8 79 1.5 WNW 19 28 10 15 1013.4 1013.4 4.2
30/09:00pm 8.3 4.5 5.6 83 1.2 WNW 15 24 8 13 1012.8 1012.8 4.2
30/08:30pm 8.1 4.5 6.6 90 0.7 WNW 15 22 8 12 1012.6 1012.6 4.2
30/08:00pm 7.7 4.8 6.5 92 0.5 WSW 11 17 6 9 1012.3 1012.3 4.2
30/07:30pm 7.9 3.3 6.7 92 0.6 W 20 28 11 15 1011.9 1011.9 4.0
30/07:06pm 8.7 0.8 6.3 85 1.1 WSW 37 44 20 24 1011.6 1011.6 3.6
30/07:00pm 9.2 5.0 5.8 79 1.6 WNW 17 32 9 17 1011.3 1011.3 2.8
30/06:30pm 9.3 4.4 4.9 74 2.0 WNW 20 30 11 16 1010.2 1010.2 2.8
30/06:00pm 9.4 4.1 5.2 75 1.9 W 22 39 12 21 1010.0 1010.0 2.8
30/05:52pm 9.5 3.6 5.7 77 1.7 W 26 39 14 21 1010.0 1010.0 2.8
30/05:35pm 9.8 0.2 6.2 78 1.7 WSW 46 69 25 37 1010.2 1010.2 2.8
30/05:34pm 10.5 0.2 6.5 76 1.9 SW 50 69 27 37 1010.2 1010.2 2.8
30/05:30pm 11.3 6.7 8.2 81 1.5 W 22 37 12 20 1009.6 1009.6 2.6
30/05:00pm 12.4 7.3 7.5 72 2.4 WNW 24 37 13 20 1008.2 1008.2 2.4
30/04:30pm 11.5 7.0 7.0 74 2.1 WNW 20 32 11 17 1007.9 1007.9 2.4
30/04:00pm 10.3 5.3 6.6 78 1.7 WNW 22 33 12 18 1007.7 1007.7 2.2
30/03:30pm 10.6 2.4 8.2 85 1.2 W 41 65 22 35 1007.8 1007.8 1.8
30/03:00pm 11.5 4.2 10.2 92 0.7 W 39 63 21 34 1006.3 1006.3 1.6
30/02:30pm 13.0 6.1 11.7 92 0.7 W 39 69 21 37 1004.7 1004.7 0.8
30/02:09pm 15.7 8.6 10.9 73 2.6 W 39 59 21 32 1003.9 1003.9 0.2
30/02:07pm 16.6 9.6 10.0 65 3.5 W 37 54 20 29 1003.5 1003.5 0.0
30/02:00pm 20.3 12.5 6.6 41 6.9 NW 37 63 20 34 1001.9 1001.9 0.0
30/01:30pm 21.6 13.5 5.1 34 8.2 NW 37 61 20 33 1001.5 1001.5 0.0
30/01:05pm 22.1 14.6 6.3 36 8.0 NW 35 56 19 30 1001.9 1001.9 0.0
30/01:00pm 22.3 14.2 6.9 37 7.9 NNW 39 56 21 30 1002.0 1002.0 0.0
30/12:30pm 21.4 13.7 6.9 39 7.4 NNW 37 57 20 31 1002.9 1002.9 0.0
30/12:04pm 20.2 12.2 7.6 44 6.5 NNW 39 59 21 32 1003.8 1003.8 0.0
30/12:00pm 20.3 12.0 7.7 44 6.5 NNW 41 59 22 32 1003.7 1003.7 0.0
30/11:35am 20.9 13.4 7.9 43 6.7 NNW 37 56 20 30 1004.1 1004.1 0.0
30/11:30am 21.1 13.6 8.0 43 6.8 NNW 37 52 20 28 1004.2 1004.2 0.0
30/11:02am 21.0 14.2 7.6 42 6.9 NNW 33 54 18 29 1004.8 1004.8 0.0
30/11:00am 21.0 14.5 8.0 43 6.8 NNW 32 46 17 25 1004.9 1004.9 0.0
30/10:30am 20.5 13.2 7.2 42 6.8 NW 35 57 19 31 1005.4 1005.4 0.0
30/10:00am 20.2 13.5 7.2 43 6.6 NNW 32 50 17 27 1005.8 1005.8 0.0
30/09:47am 19.8 13.8 6.9 43 6.5 NNW 28 50 15 27 1006.0 1006.0 0.0
30/09:30am 19.6 14.1 7.7 46 6.1 NNW 26 41 14 22 1006.4 1006.4 0.0
30/09:00am 17.8 13.8 8.4 54 4.8 N 19 30 10 16 1007.0 1007.0 0.0
30/08:30am 17.5 14.1 9.2 58 4.3 N 17 26 9 14 1007.5 1007.5 0.0
30/08:00am 14.9 12.0 9.5 70 2.8 NNE 15 20 8 11 1008.0 1008.0 0.0
30/07:30am 13.6 10.6 9.1 74 2.3 N 15 22 8 12 1008.2 1008.2 0.0
30/07:00am 12.5 10.2 9.1 80 1.7 N 11 22 6 12 1008.8 1008.8 0.0
30/06:30am 10.1 8.5 8.9 92 0.6 N 7 9 4 5 1009.2 1009.2 0.0
30/06:00am 9.1 7.5 7.9 92 0.6 NW 6 9 3 5 1009.2 1009.2 0.0
30/05:30am 9.3 7.7 8.2 93 0.5 NNW 6 6 3 3 1009.1 1009.1 0.0
30/05:00am 9.1 7.9 8.0 93 0.5 WNW 4 4 2 2 1009.1 1009.1 0.0
30/04:30am 9.4 7.8 8.2 92 0.6 NW 6 7 3 4 1008.6 1008.6 0.0
30/04:00am 10.0 9.0 8.8 92 0.6 N 4 6 2 3 1008.6 1008.6 0.0
30/03:30am 10.1 9.1 8.9 92 0.6 NNW 4 4 2 2 1009.0 1009.0 0.0
30/03:00am 10.2 8.8 9.0 92 0.6 NNW 6 7 3 4 1009.4 1009.4 0.0
30/02:30am 10.7 9.9 9.5 92 0.6 NNW 4 6 2 3 1009.7 1009.7 0.0
30/02:00am 10.9 9.5 9.7 92 0.6 NNW 7 7 4 4 1010.2 1010.2 0.0
30/01:30am 11.4 10.8 10.3 93 0.6 NW 4 6 2 3 1010.4 1010.4 0.0
30/01:00am 12.2 12.6 11.1 93 0.6 CALM 0 0 0 0 1010.9 1010.9 0.0
30/12:30am 12.6 13.1 11.5 93 0.6 CALM 0 0 0 0 1011.3 1011.3 0.0
30/12:00am 12.8 12.9 11.5 92 0.7 SSW 2 6 1 3 1011.4 1011.4 0.0
 
Date/Time
EST
Tmp

°C
App
Tmp
°C
Dew
Point
°C
Rel
Hum
%
Delta-T

°C
Wind Press
QNH
hPa
Press
MSL
hPa
Rain
since
9 am
mm
Dir
 
Spd
km/h
Gust
km/h
Spd
kts
Gust
kts
29/11:30pm 13.0 12.2 11.7 92 0.7 S 7 9 4 5 1011.5 1011.5 0.0
29/11:00pm 13.0 11.8 11.7 92 0.7 S 9 13 5 7 1011.7 1011.7 0.0
29/10:30pm 13.2 11.7 8.3 72 2.4 SSE 6 9 3 5 1011.7 1011.7 0.0
29/10:00pm 13.3 12.7 7.3 67 2.9 CALM 0 2 0 1 1011.5 1011.5 0.0
29/09:30pm 13.5 11.6 6.8 64 3.2 WSW 6 9 3 5 1011.3 1011.3 0.0
29/09:00pm 14.6 14.0 7.2 61 3.6 CALM 0 2 0 1 1011.2 1011.2 0.0
29/08:30pm 15.7 13.8 6.7 55 4.4 N 6 7 3 4 1011.2 1011.2 0.0
29/08:00pm 15.8 14.4 7.1 56 4.3 NNW 4 4 2 2 1011.0 1011.0 0.0
29/07:30pm 17.2 15.4 7.0 51 5.1 NNW 6 7 3 4 1010.8 1010.8 0.0
29/07:00pm 18.3 16.2 6.5 46 5.9 NW 7 9 4 5 1010.6 1010.6 0.0
29/06:30pm 19.6 16.8 7.0 44 6.4 NNW 11 17 6 9 1010.3 1010.3 0.0
29/06:00pm 20.6 16.3 6.9 41 7.0 NNW 19 28 10 15 1010.3 1010.3 0.0
29/05:30pm 21.1 16.2 7.0 40 7.2 NNW 22 33 12 18 1010.2 1010.2 0.0
29/05:00pm 21.4 16.1 6.9 39 7.4 NNW 24 37 13 20 1010.1 1010.1 0.0
29/04:30pm 21.6 16.7 7.1 39 7.4 NW 22 37 12 20 1010.1 1010.1 0.0
29/04:00pm 22.1 16.7 6.3 36 8.0 NW 24 41 13 22 1010.2 1010.2 0.0
29/03:30pm 22.2 17.0 7.2 38 7.7 NNW 24 35 13 19 1010.1 1010.1 0.0
29/03:00pm 22.5 17.8 7.9 39 7.7 NW 22 37 12 20 1010.3 1010.3 0.0
29/02:30pm 22.5 18.3 7.5 38 7.8 N 19 28 10 15 1010.7 1010.7 0.0
29/02:00pm 21.6 17.1 7.1 39 7.4 NW 20 32 11 17 1011.0 1011.0 0.0
29/01:30pm 21.3 17.2 7.9 42 7.0 NNW 19 32 10 17 1011.1 1011.1 0.0
29/01:00pm 20.5 16.0 6.8 41 6.9 NNW 20 30 11 16 1011.6 1011.6 0.0
29/12:30pm 20.5 15.9 6.5 40 7.1 NW 20 30 11 16 1012.0 1012.0 0.0
29/12:00pm 19.6 14.3 7.0 44 6.4 NW 24 33 13 18 1012.8 1012.8 0.0
29/11:30am 19.4 14.8 6.5 43 6.5 WNW 20 35 11 19 1012.8 1012.8 0.0
29/11:00am 18.5 13.4 6.0 44 6.2 NW 22 33 12 18 1012.9 1012.9 0.0
29/10:30am 17.4 12.8 6.6 49 5.3 NW 20 28 11 15 1013.3 1013.3 0.0
29/10:00am 17.9 13.4 7.0 49 5.4 WNW 20 30 11 16 1013.5 1013.5 0.0
29/09:30am 16.5 12.1 7.2 54 4.6 WNW 20 30 11 16 1013.7 1013.7 0.0
29/09:00am 16.1 11.9 8.1 59 4.0 WNW 20 28 11 15 1013.3 1013.3 0.0
29/08:30am 15.3 11.6 9.4 68 3.0 NW 19 28 10 15 1013.1 1013.1 0.0
29/08:00am 14.1 10.9 9.9 76 2.2 NW 17 24 9 13 1012.9 1012.9 0.0
29/07:30am 13.5 10.6 9.7 78 1.9 NW 15 22 8 12 1012.6 1012.6 0.0
29/07:00am 12.6 10.5 9.6 82 1.5 NW 11 17 6 9 1012.7 1012.7 0.0
29/06:30am 11.6 10.0 8.8 83 1.4 NW 7 11 4 6 1012.4 1012.4 0.0
29/06:00am 11.9 9.1 8.6 80 1.6 NW 13 19 7 10 1011.5 1011.5 0.0
29/05:30am 12.2 8.6 8.3 77 1.9 WNW 17 28 9 15 1010.6 1010.6 0.0
29/05:00am 12.2 8.6 8.3 77 1.9 WNW 17 28 9 15 1010.5 1010.5 0.0
29/04:30am 12.4 9.1 8.1 75 2.1 WNW 15 26 8 14 1010.2 1010.2 0.0
29/04:00am 12.9 8.6 8.0 72 2.4 WNW 20 37 11 20 1009.3 1009.3 0.0
29/03:30am 13.0 9.7 7.9 71 2.5 WNW 15 30 8 16 1009.2 1009.2 0.0
29/03:00am 13.1 9.7 7.5 69 2.7 WNW 15 30 8 16 1009.1 1009.1 0.0
29/02:30am 12.8 9.6 7.0 68 2.8 WNW 13 20 7 11 1009.0 1009.0 0.0
29/02:00am 13.4 7.8 7.0 65 3.1 WNW 26 46 14 25 1008.3 1008.3 0.0
29/01:30am 13.0 8.4 6.6 65 3.1 WNW 20 32 11 17 1008.6 1008.6 0.0
29/01:00am 13.2 8.4 7.2 67 2.9 WNW 22 33 12 18 1008.6 1008.6 0.0
29/12:30am 13.8 8.6 7.3 65 3.2 WNW 24 39 13 21 1008.2 1008.2 0.0
29/12:00am 14.0 8.5 7.5 65 3.2 WNW 26 39 14 21 1007.7 1007.7 0.0
 
Date/Time
EST
Tmp

°C
App
Tmp
°C
Dew
Point
°C
Rel
Hum
%
Delta-T

°C
Wind Press
QNH
hPa
Press
MSL
hPa
Rain
since
9 am
mm
Dir
 
Spd
km/h
Gust
km/h
Spd
kts
Gust
kts
28/11:30pm 14.2 9.9 7.9 66 3.1 WNW 20 35 11 19 1007.3 1007.3 0.0
28/11:00pm 14.2 9.1 7.7 65 3.2 W 24 37 13 20 1007.3 1007.3 0.0
28/10:30pm 15.0 10.1 7.1 59 3.9 W 22 33 12 18 1006.6 1006.6 0.0
28/10:00pm 15.6 10.9 7.6 59 4.0 W 22 35 12 19 1006.4 1006.4 0.0
28/09:30pm 16.5 12.7 7.4 55 4.5 W 17 32 9 17 1006.5 1006.5 0.0
28/09:00pm 17.1 14.3 10.0 63 3.8 W 15 24 8 13 1006.2 1006.2 0.0
28/08:30pm 17.3 14.2 10.2 63 3.8 W 17 26 9 14 1005.7 1005.7 0.0
28/08:00pm 18.6 14.9 10.2 58 4.5 WSW 20 33 11 18 1005.2 1005.2 0.0
28/07:55pm 19.0 14.9 10.0 56 4.8 WSW 22 33 12 18 1005.1 1005.1 0.0
28/07:30pm 24.0 20.0 6.7 33 8.9 W 17 28 9 15 1004.0 1004.0 0.0
28/07:00pm 26.5 21.4 4.3 24 11.2 N 20 39 11 21 1002.5 1002.5 0.0
28/06:30pm 26.8 21.2 3.3 22 11.6 N 22 35 12 19 1002.1 1002.1 0.0
28/06:00pm 27.4 20.6 3.2 21 12.1 N 28 41 15 22 1002.0 1002.0 0.0
28/05:33pm 27.8 20.6 2.8 20 12.3 N 30 52 16 28 1002.0 1002.0 0.0
28/05:30pm 27.6 21.1 2.6 20 12.3 N 26 44 14 24 1002.0 1002.0 0.0
28/05:00pm 28.4 19.7 1.8 18 13.0 N 37 59 20 32 1001.9 1001.9 0.0
28/04:30pm 28.8 19.0 2.1 18 13.1 N 43 67 23 36 1002.0 1002.0 0.0
28/04:00pm 28.9 19.5 2.2 18 13.2 N 41 67 22 36 1002.2 1002.2 0.0
28/03:30pm 28.9 17.6 1.4 17 13.4 NNW 50 87 27 47 1002.6 1002.6 0.0
28/03:00pm 29.1 18.4 2.4 18 13.3 NNW 48 74 26 40 1002.7 1002.7 0.0
28/02:30pm 29.3 22.0 7.2 25 11.9 N 35 65 19 35 1003.1 1003.1 0.0
28/02:00pm 28.9 19.8 6.9 25 11.8 N 44 65 24 35 1003.8 1003.8 0.0
28/01:30pm 29.3 20.4 6.7 24 12.1 NNW 43 69 23 37 1004.5 1004.5 0.0
28/01:00pm 28.4 21.5 6.5 25 11.6 N 32 61 17 33 1005.8 1005.8 0.0
28/12:37pm 26.9 20.4 6.3 27 10.8 NNW 30 50 16 27 1006.5 1006.5 0.0
28/12:30pm 26.5 20.0 6.5 28 10.5 NNW 30 46 16 25 1006.7 1006.7 0.0
28/12:00pm 27.1 22.5 8.0 30 10.3 NNW 22 41 12 22 1007.4 1007.4 0.0
28/11:50am 28.2 22.0 6.3 25 11.5 NNW 28 50 15 27 1007.5 1007.5 0.0
28/11:30am 26.7 21.4 8.6 32 9.8 N 26 39 14 21 1007.3 1007.3 0.0
28/11:00am 24.0 18.9 9.2 39 8.0 N 26 43 14 23 1006.6 1006.6 0.0
28/10:30am 23.2 16.8 8.5 39 7.8 N 32 46 17 25 1006.9 1006.9 0.0
28/10:00am 22.6 15.3 8.7 41 7.4 N 37 59 20 32 1007.0 1007.0 0.0
28/09:37am 22.6 17.1 9.0 42 7.3 N 28 46 15 25 1007.6 1007.6 0.0
28/09:30am 22.1 16.2 8.9 43 7.0 N 30 44 16 24 1008.0 1008.0 0.0
28/09:00am 21.0 14.7 8.9 46 6.4 N 32 46 17 25 1009.6 1009.6 0.0
28/08:40am 20.3 14.6 8.3 46 6.2 N 28 52 15 28 1009.8 1009.8 0.0
28/08:30am 19.8 14.1 8.5 48 5.9 N 28 43 15 23 1010.2 1010.2 0.0
28/08:00am 18.6 13.0 8.6 52 5.2 N 28 43 15 23 1010.4 1010.4 0.0
28/07:30am 17.8 10.4 8.4 54 4.8 N 37 50 20 27 1010.7 1010.7 0.0
28/07:00am 17.4 10.7 8.3 55 4.7 N 33 46 18 25 1010.9 1010.9 0.0
28/06:30am 17.1 10.7 8.5 57 4.4 N 32 43 17 23 1011.1 1011.1 0.0
28/06:00am 18.1 12.7 7.8 51 5.2 N 26 39 14 21 1011.0 1011.0 0.0
28/05:30am 18.8 13.8 7.9 49 5.6 N 24 37 13 20 1011.0 1011.0 0.0
28/05:00am 18.8 15.8 7.9 49 5.6 N 13 20 7 11 1011.0 1011.0 0.0
28/04:30am 16.8 14.1 9.0 60 4.0 ENE 13 22 7 12 1011.2 1011.2 0.0
28/04:00am 17.6 13.7 8.7 56 4.6 ENE 19 30 10 16 1011.3 1011.3 0.0

Latest Capital City Observations: Canberra | Sydney | Melbourne | Brisbane | Adelaide | Perth | Hobart | Darwin

Other Formats:

Comma delimited format used in spreadsheet applications
http://www.bom.gov.au/fwo/IDV60901/IDV60901.94857.axf

JavaScript Object Notation format (JSON) in row-major order
http://www.bom.gov.au/fwo/IDV60901/IDV60901.94857.json